sensor_id;sensor_type;location;lat;lon;timestamp;P1;P2;P0
79117;PMS7003;68523;51.336;-0.846;2023-07-09T00:00:00;12;12;
79117;PMS7003;68523;51.336;-0.846;2023-07-09T00:03:00;13;11;
79117;PMS7003;68523;51.336;-0.846;2023-07-09T00:06:00;12;11;
79117;PMS7003;68523;51.336;-0.846;2023-07-09T00:09:00;12;11;
79117;PMS7003;68523;51.336;-0.846;2023-07-09T00:12:00;9;9;
79117;PMS7003;68523;51.336;-0.846;2023-07-09T00:15:00;9;9;
79117;PMS7003;68523;51.336;-0.846;2023-07-09T00:18:00;9;8;
79117;PMS7003;68523;51.336;-0.846;2023-07-09T00:21:00;6;6;
79117;PMS7003;68523;51.336;-0.846;2023-07-09T00:24:00;6;6;
79117;PMS7003;68523;51.336;-0.846;2023-07-09T00:27:00;10;10;
79117;PMS7003;68523;51.336;-0.846;2023-07-09T00:30:00;10;10;
79117;PMS7003;68523;51.336;-0.846;2023-07-09T00:33:00;9;9;
79117;PMS7003;68523;51.336;-0.846;2023-07-09T00:36:00;9;8;
79117;PMS7003;68523;51.336;-0.846;2023-07-09T00:39:00;9;8;
79117;PMS7003;68523;51.336;-0.846;2023-07-09T00:42:00;9;8;
79117;PMS7003;68523;51.336;-0.846;2023-07-09T00:45:00;9;8;
79117;PMS7003;68523;51.336;-0.846;2023-07-09T00:48:00;9;8;
79117;PMS7003;68523;51.336;-0.846;2023-07-09T00:51:00;8;8;
79117;PMS7003;68523;51.336;-0.846;2023-07-09T00:54:01;8;8;
79117;PMS7003;68523;51.336;-0.846;2023-07-09T00:57:02;8;8;
79117;PMS7003;68523;51.336;-0.846;2023-07-09T01:00:03;8;8;
79117;PMS7003;68523;51.336;-0.846;2023-07-09T01:03:00;10;6;
79117;PMS7003;68523;51.336;-0.846;2023-07-09T01:06:00;5;5;
79117;PMS7003;68523;51.336;-0.846;2023-07-09T01:09:00;5;5;
79117;PMS7003;68523;51.336;-0.846;2023-07-09T01:12:00;6;5;
79117;PMS7003;68523;51.336;-0.846;2023-07-09T01:15:00;6;5;
79117;PMS7003;68523;51.336;-0.846;2023-07-09T01:18:00;10;6;
79117;PMS7003;68523;51.336;-0.846;2023-07-09T01:21:01;8;7;
79117;PMS7003;68523;51.336;-0.846;2023-07-09T01:24:10;8;7;
79117;PMS7003;68523;51.336;-0.846;2023-07-09T01:27:00;6;5;
79117;PMS7003;68523;51.336;-0.846;2023-07-09T01:30:01;6;5;
79117;PMS7003;68523;51.336;-0.846;2023-07-09T01:33:00;6;5;
79117;PMS7003;68523;51.336;-0.846;2023-07-09T01:36:00;6;5;
79117;PMS7003;68523;51.336;-0.846;2023-07-09T01:39:00;6;5;
79117;PMS7003;68523;51.336;-0.846;2023-07-09T01:42:00;9;6;
79117;PMS7003;68523;51.336;-0.846;2023-07-09T01:45:00;9;6;
79117;PMS7003;68523;51.336;-0.846;2023-07-09T01:48:00;6;5;
79117;PMS7003;68523;51.336;-0.846;2023-07-09T01:51:00;7;7;
79117;PMS7003;68523;51.336;-0.846;2023-07-09T01:54:00;7;7;
79117;PMS7003;68523;51.336;-0.846;2023-07-09T02:00:02;8;6;
79117;PMS7003;68523;51.336;-0.846;2023-07-09T02:03:00;6;6;
79117;PMS7003;68523;51.336;-0.846;2023-07-09T02:06:00;8;5;
79117;PMS7003;68523;51.336;-0.846;2023-07-09T02:09:00;8;5;
79117;PMS7003;68523;51.336;-0.846;2023-07-09T02:12:00;8;7;
79117;PMS7003;68523;51.336;-0.846;2023-07-09T02:15:00;8;7;
79117;PMS7003;68523;51.336;-0.846;2023-07-09T02:18:00;7;5;
79117;PMS7003;68523;51.336;-0.846;2023-07-09T02:21:00;7;7;
79117;PMS7003;68523;51.336;-0.846;2023-07-09T02:24:00;7;7;
79117;PMS7003;68523;51.336;-0.846;2023-07-09T02:27:01;6;6;
79117;PMS7003;68523;51.336;-0.846;2023-07-09T02:30:00;6;6;
79117;PMS7003;68523;51.336;-0.846;2023-07-09T02:33:00;6;5;
79117;PMS7003;68523;51.336;-0.846;2023-07-09T02:36:00;8;7;
79117;PMS7003;68523;51.336;-0.846;2023-07-09T02:39:00;8;7;
79117;PMS7003;68523;51.336;-0.846;2023-07-09T02:42:00;11;7;
79117;PMS7003;68523;51.336;-0.846;2023-07-09T02:45:00;11;7;
79117;PMS7003;68523;51.336;-0.846;2023-07-09T02:48:00;11;8;
79117;PMS7003;68523;51.336;-0.846;2023-07-09T02:51:00;6;6;
79117;PMS7003;68523;51.336;-0.846;2023-07-09T02:54:01;6;6;
79117;PMS7003;68523;51.336;-0.846;2023-07-09T02:57:00;9;7;
79117;PMS7003;68523;51.336;-0.846;2023-07-09T03:00:00;9;7;
79117;PMS7003;68523;51.336;-0.846;2023-07-09T03:03:00;6;6;
79117;PMS7003;68523;51.336;-0.846;2023-07-09T03:06:00;9;7;
79117;PMS7003;68523;51.336;-0.846;2023-07-09T03:09:00;9;7;
79117;PMS7003;68523;51.336;-0.846;2023-07-09T03:12:00;10;7;
79117;PMS7003;68523;51.336;-0.846;2023-07-09T03:15:00;10;7;
79117;PMS7003;68523;51.336;-0.846;2023-07-09T03:18:00;6;6;
79117;PMS7003;68523;51.336;-0.846;2023-07-09T03:21:00;8;5;
79117;PMS7003;68523;51.336;-0.846;2023-07-09T03:24:00;8;5;
79117;PMS7003;68523;51.336;-0.846;2023-07-09T03:27:00;7;6;
79117;PMS7003;68523;51.336;-0.846;2023-07-09T03:30:00;7;6;
79117;PMS7003;68523;51.336;-0.846;2023-07-09T03:33:00;10;6;
79117;PMS7003;68523;51.336;-0.846;2023-07-09T03:36:00;13;9;
79117;PMS7003;68523;51.336;-0.846;2023-07-09T03:39:00;13;9;
79117;PMS7003;68523;51.336;-0.846;2023-07-09T03:42:00;8;5;
79117;PMS7003;68523;51.336;-0.846;2023-07-09T03:45:00;8;5;
79117;PMS7003;68523;51.336;-0.846;2023-07-09T03:48:00;6;5;
79117;PMS7003;68523;51.336;-0.846;2023-07-09T03:51:00;8;5;
79117;PMS7003;68523;51.336;-0.846;2023-07-09T03:54:00;8;5;
79117;PMS7003;68523;51.336;-0.846;2023-07-09T03:57:00;8;5;
79117;PMS7003;68523;51.336;-0.846;2023-07-09T04:00:00;8;5;
79117;PMS7003;68523;51.336;-0.846;2023-07-09T04:03:00;5;5;
79117;PMS7003;68523;51.336;-0.846;2023-07-09T04:06:00;7;6;
79117;PMS7003;68523;51.336;-0.846;2023-07-09T04:09:00;7;6;
79117;PMS7003;68523;51.336;-0.846;2023-07-09T04:12:00;12;10;
79117;PMS7003;68523;51.336;-0.846;2023-07-09T04:15:00;12;10;
79117;PMS7003;68523;51.336;-0.846;2023-07-09T04:18:00;9;6;
79117;PMS7003;68523;51.336;-0.846;2023-07-09T04:21:00;9;6;
79117;PMS7003;68523;51.336;-0.846;2023-07-09T04:24:00;8;6;
79117;PMS7003;68523;51.336;-0.846;2023-07-09T04:27:00;11;7;
79117;PMS7003;68523;51.336;-0.846;2023-07-09T04:30:00;11;7;
79117;PMS7003;68523;51.336;-0.846;2023-07-09T04:33:00;7;6;
79117;PMS7003;68523;51.336;-0.846;2023-07-09T04:36:00;7;6;
79117;PMS7003;68523;51.336;-0.846;2023-07-09T04:39:01;8;5;
79117;PMS7003;68523;51.336;-0.846;2023-07-09T04:42:01;13;8;
79117;PMS7003;68523;51.336;-0.846;2023-07-09T04:45:00;13;8;
79117;PMS7003;68523;51.336;-0.846;2023-07-09T04:48:00;9;7;
79117;PMS7003;68523;51.336;-0.846;2023-07-09T04:51:00;9;7;
79117;PMS7003;68523;51.336;-0.846;2023-07-09T04:54:00;8;7;
79117;PMS7003;68523;51.336;-0.846;2023-07-09T04:57:00;8;8;
79117;PMS7003;68523;51.336;-0.846;2023-07-09T05:00:00;8;8;
79117;PMS7003;68523;51.336;-0.846;2023-07-09T05:03:00;6;6;
79117;PMS7003;68523;51.336;-0.846;2023-07-09T05:06:00;6;6;
79117;PMS7003;68523;51.336;-0.846;2023-07-09T05:09:00;9;6;
79117;PMS7003;68523;51.336;-0.846;2023-07-09T05:12:00;10;8;
79117;PMS7003;68523;51.336;-0.846;2023-07-09T05:15:00;10;8;
79117;PMS7003;68523;51.336;-0.846;2023-07-09T05:18:00;6;6;
79117;PMS7003;68523;51.336;-0.846;2023-07-09T05:21:00;6;6;
79117;PMS7003;68523;51.336;-0.846;2023-07-09T05:24:00;7;6;
79117;PMS7003;68523;51.336;-0.846;2023-07-09T05:27:00;3;3;
79117;PMS7003;68523;51.336;-0.846;2023-07-09T05:30:00;3;3;
79117;PMS7003;68523;51.336;-0.846;2023-07-09T05:33:00;12;8;
79117;PMS7003;68523;51.336;-0.846;2023-07-09T05:36:00;12;8;
79117;PMS7003;68523;51.336;-0.846;2023-07-09T05:39:00;7;5;
79117;PMS7003;68523;51.336;-0.846;2023-07-09T05:42:00;7;6;
79117;PMS7003;68523;51.336;-0.846;2023-07-09T05:45:00;7;6;
79117;PMS7003;68523;51.336;-0.846;2023-07-09T05:48:00;8;5;
79117;PMS7003;68523;51.336;-0.846;2023-07-09T05:51:00;8;5;
79117;PMS7003;68523;51.336;-0.846;2023-07-09T05:54:00;6;5;
79117;PMS7003;68523;51.336;-0.846;2023-07-09T05:57:00;7;5;
79117;PMS7003;68523;51.336;-0.846;2023-07-09T06:00:00;7;5;
79117;PMS7003;68523;51.336;-0.846;2023-07-09T06:03:00;7;6;
79117;PMS7003;68523;51.336;-0.846;2023-07-09T06:06:00;7;6;
79117;PMS7003;68523;51.336;-0.846;2023-07-09T06:09:00;6;5;
79117;PMS7003;68523;51.336;-0.846;2023-07-09T06:12:00;3;3;
79117;PMS7003;68523;51.336;-0.846;2023-07-09T06:15:00;3;3;
79117;PMS7003;68523;51.336;-0.846;2023-07-09T06:18:00;8;5;
79117;PMS7003;68523;51.336;-0.846;2023-07-09T06:21:01;8;5;
79117;PMS7003;68523;51.336;-0.846;2023-07-09T06:24:00;4;4;
79117;PMS7003;68523;51.336;-0.846;2023-07-09T06:27:00;4;3;
79117;PMS7003;68523;51.336;-0.846;2023-07-09T06:30:00;4;3;
79117;PMS7003;68523;51.336;-0.846;2023-07-09T06:33:00;4;3;
79117;PMS7003;68523;51.336;-0.846;2023-07-09T06:36:00;4;3;
79117;PMS7003;68523;51.336;-0.846;2023-07-09T06:39:00;3;3;
79117;PMS7003;68523;51.336;-0.846;2023-07-09T06:42:00;7;5;
79117;PMS7003;68523;51.336;-0.846;2023-07-09T06:45:00;7;5;
79117;PMS7003;68523;51.336;-0.846;2023-07-09T06:48:00;9;5;
79117;PMS7003;68523;51.336;-0.846;2023-07-09T06:51:00;9;5;
79117;PMS7003;68523;51.336;-0.846;2023-07-09T06:54:00;4;4;
79117;PMS7003;68523;51.336;-0.846;2023-07-09T06:57:00;8;2;
79117;PMS7003;68523;51.336;-0.846;2023-07-09T07:00:00;8;2;
79117;PMS7003;68523;51.336;-0.846;2023-07-09T07:03:00;6;4;
79117;PMS7003;68523;51.336;-0.846;2023-07-09T07:06:00;6;4;
79117;PMS7003;68523;51.336;-0.846;2023-07-09T07:09:00;5;5;
79117;PMS7003;68523;51.336;-0.846;2023-07-09T07:12:00;5;4;
79117;PMS7003;68523;51.336;-0.846;2023-07-09T07:15:00;5;4;
79117;PMS7003;68523;51.336;-0.846;2023-07-09T07:18:00;6;4;
79117;PMS7003;68523;51.336;-0.846;2023-07-09T07:21:00;6;4;
79117;PMS7003;68523;51.336;-0.846;2023-07-09T07:24:00;3;3;
79117;PMS7003;68523;51.336;-0.846;2023-07-09T07:27:00;4;4;
79117;PMS7003;68523;51.336;-0.846;2023-07-09T07:30:00;4;4;
79117;PMS7003;68523;51.336;-0.846;2023-07-09T07:33:00;7;3;
79117;PMS7003;68523;51.336;-0.846;2023-07-09T07:36:00;7;3;
79117;PMS7003;68523;51.336;-0.846;2023-07-09T07:39:00;8;6;
79117;PMS7003;68523;51.336;-0.846;2023-07-09T07:42:00;6;5;
79117;PMS7003;68523;51.336;-0.846;2023-07-09T07:45:00;6;5;
79117;PMS7003;68523;51.336;-0.846;2023-07-09T07:48:00;2;2;
79117;PMS7003;68523;51.336;-0.846;2023-07-09T07:51:00;2;2;
79117;PMS7003;68523;51.336;-0.846;2023-07-09T07:54:00;5;3;
79117;PMS7003;68523;51.336;-0.846;2023-07-09T07:57:00;3;3;
79117;PMS7003;68523;51.336;-0.846;2023-07-09T08:00:00;3;3;
79117;PMS7003;68523;51.336;-0.846;2023-07-09T08:03:00;5;4;
79117;PMS7003;68523;51.336;-0.846;2023-07-09T08:06:01;5;4;
79117;PMS7003;68523;51.336;-0.846;2023-07-09T08:09:00;5;3;
79117;PMS7003;68523;51.336;-0.846;2023-07-09T08:12:00;3;3;
79117;PMS7003;68523;51.336;-0.846;2023-07-09T08:15:00;3;3;
79117;PMS7003;68523;51.336;-0.846;2023-07-09T08:18:00;3;2;
79117;PMS7003;68523;51.336;-0.846;2023-07-09T08:21:00;3;2;
79117;PMS7003;68523;51.336;-0.846;2023-07-09T08:24:00;3;3;
79117;PMS7003;68523;51.336;-0.846;2023-07-09T08:27:00;5;2;
79117;PMS7003;68523;51.336;-0.846;2023-07-09T08:30:00;5;2;
79117;PMS7003;68523;51.336;-0.846;2023-07-09T08:33:00;7;3;
79117;PMS7003;68523;51.336;-0.846;2023-07-09T08:36:00;7;3;
79117;PMS7003;68523;51.336;-0.846;2023-07-09T08:39:01;5;3;
79117;PMS7003;68523;51.336;-0.846;2023-07-09T08:42:01;7;3;
79117;PMS7003;68523;51.336;-0.846;2023-07-09T08:45:03;7;3;
79117;PMS7003;68523;51.336;-0.846;2023-07-09T08:48:02;5;4;
79117;PMS7003;68523;51.336;-0.846;2023-07-09T08:51:02;5;4;
79117;PMS7003;68523;51.336;-0.846;2023-07-09T08:54:00;3;3;
79117;PMS7003;68523;51.336;-0.846;2023-07-09T08:57:02;5;3;
79117;PMS7003;68523;51.336;-0.846;2023-07-09T09:00:02;5;3;
79117;PMS7003;68523;51.336;-0.846;2023-07-09T09:03:01;7;3;
79117;PMS7003;68523;51.336;-0.846;2023-07-09T09:06:00;7;3;
79117;PMS7003;68523;51.336;-0.846;2023-07-09T09:09:02;5;4;
79117;PMS7003;68523;51.336;-0.846;2023-07-09T09:12:04;3;3;
79117;PMS7003;68523;51.336;-0.846;2023-07-09T09:15:01;3;3;
79117;PMS7003;68523;51.336;-0.846;2023-07-09T09:18:09;4;3;
79117;PMS7003;68523;51.336;-0.846;2023-07-09T09:21:01;4;3;
79117;PMS7003;68523;51.336;-0.846;2023-07-09T09:24:05;4;3;
79117;PMS7003;68523;51.336;-0.846;2023-07-09T09:27:00;5;3;
79117;PMS7003;68523;51.336;-0.846;2023-07-09T09:30:00;5;3;
79117;PMS7003;68523;51.336;-0.846;2023-07-09T09:33:01;4;3;
79117;PMS7003;68523;51.336;-0.846;2023-07-09T09:36:01;4;3;
79117;PMS7003;68523;51.336;-0.846;2023-07-09T09:39:01;4;3;
79117;PMS7003;68523;51.336;-0.846;2023-07-09T09:42:00;4;2;
79117;PMS7003;68523;51.336;-0.846;2023-07-09T09:45:00;4;2;
79117;PMS7003;68523;51.336;-0.846;2023-07-09T09:48:00;2;2;
79117;PMS7003;68523;51.336;-0.846;2023-07-09T09:51:03;2;2;
79117;PMS7003;68523;51.336;-0.846;2023-07-09T09:54:00;4;3;
79117;PMS7003;68523;51.336;-0.846;2023-07-09T09:57:00;2;1;
79117;PMS7003;68523;51.336;-0.846;2023-07-09T10:00:00;2;1;
79117;PMS7003;68523;51.336;-0.846;2023-07-09T10:03:01;3;2;
79117;PMS7003;68523;51.336;-0.846;2023-07-09T10:06:01;3;2;
79117;PMS7003;68523;51.336;-0.846;2023-07-09T10:09:01;1;1;
79117;PMS7003;68523;51.336;-0.846;2023-07-09T10:12:02;1;1;
79117;PMS7003;68523;51.336;-0.846;2023-07-09T10:15:01;1;1;
79117;PMS7003;68523;51.336;-0.846;2023-07-09T10:18:01;3;1;
79117;PMS7003;68523;51.336;-0.846;2023-07-09T10:21:03;3;1;
79117;PMS7003;68523;51.336;-0.846;2023-07-09T10:24:04;4;3;
79117;PMS7003;68523;51.336;-0.846;2023-07-09T10:27:02;2;2;
79117;PMS7003;68523;51.336;-0.846;2023-07-09T10:30:03;2;2;
79117;PMS7003;68523;51.336;-0.846;2023-07-09T10:33:03;19;18;
79117;PMS7003;68523;51.336;-0.846;2023-07-09T10:36:01;19;18;
79117;PMS7003;68523;51.336;-0.846;2023-07-09T10:39:01;13;13;
79117;PMS7003;68523;51.336;-0.846;2023-07-09T10:42:00;37;32;
79117;PMS7003;68523;51.336;-0.846;2023-07-09T10:45:01;37;32;
79117;PMS7003;68523;51.336;-0.846;2023-07-09T10:48:01;50;43;
79117;PMS7003;68523;51.336;-0.846;2023-07-09T10:51:00;50;43;
79117;PMS7003;68523;51.336;-0.846;2023-07-09T10:54:01;51;42;
79117;PMS7003;68523;51.336;-0.846;2023-07-09T10:57:02;54;45;
79117;PMS7003;68523;51.336;-0.846;2023-07-09T11:00:00;54;45;
79117;PMS7003;68523;51.336;-0.846;2023-07-09T11:03:02;60;49;
79117;PMS7003;68523;51.336;-0.846;2023-07-09T11:06:00;60;49;
79117;PMS7003;68523;51.336;-0.846;2023-07-09T11:09:00;55;47;
79117;PMS7003;68523;51.336;-0.846;2023-07-09T11:12:01;27;25;
79117;PMS7003;68523;51.336;-0.846;2023-07-09T11:15:02;27;25;
79117;PMS7003;68523;51.336;-0.846;2023-07-09T11:18:00;56;46;
79117;PMS7003;68523;51.336;-0.846;2023-07-09T11:21:00;56;46;
79117;PMS7003;68523;51.336;-0.846;2023-07-09T11:24:00;55;44;
79117;PMS7003;68523;51.336;-0.846;2023-07-09T11:27:00;58;47;
79117;PMS7003;68523;51.336;-0.846;2023-07-09T11:30:00;58;47;
79117;PMS7003;68523;51.336;-0.846;2023-07-09T11:33:02;62;51;
79117;PMS7003;68523;51.336;-0.846;2023-07-09T11:36:08;62;51;
79117;PMS7003;68523;51.336;-0.846;2023-07-09T11:39:00;53;44;
79117;PMS7003;68523;51.336;-0.846;2023-07-09T11:42:00;58;48;
79117;PMS7003;68523;51.336;-0.846;2023-07-09T11:45:06;58;48;
79117;PMS7003;68523;51.336;-0.846;2023-07-09T11:48:01;54;45;
79117;PMS7003;68523;51.336;-0.846;2023-07-09T11:51:00;54;45;
79117;PMS7003;68523;51.336;-0.846;2023-07-09T11:54:00;10;10;
79117;PMS7003;68523;51.336;-0.846;2023-07-09T11:57:01;12;9;
79117;PMS7003;68523;51.336;-0.846;2023-07-09T12:00:00;12;9;
79117;PMS7003;68523;51.336;-0.846;2023-07-09T12:03:00;10;9;
79117;PMS7003;68523;51.336;-0.846;2023-07-09T12:06:02;10;9;
79117;PMS7003;68523;51.336;-0.846;2023-07-09T12:09:00;11;7;
79117;PMS7003;68523;51.336;-0.846;2023-07-09T12:12:00;11;7;
79117;PMS7003;68523;51.336;-0.846;2023-07-09T12:15:04;7;2;
79117;PMS7003;68523;51.336;-0.846;2023-07-09T12:18:01;2;2;
79117;PMS7003;68523;51.336;-0.846;2023-07-09T12:21:00;2;2;
79117;PMS7003;68523;51.336;-0.846;2023-07-09T12:24:00;3;3;
79117;PMS7003;68523;51.336;-0.846;2023-07-09T12:27:01;3;3;
79117;PMS7003;68523;51.336;-0.846;2023-07-09T12:30:00;5;5;
79117;PMS7003;68523;51.336;-0.846;2023-07-09T12:33:00;13;12;
79117;PMS7003;68523;51.336;-0.846;2023-07-09T12:36:01;13;12;
79117;PMS7003;68523;51.336;-0.846;2023-07-09T12:39:01;7;5;
79117;PMS7003;68523;51.336;-0.846;2023-07-09T12:42:00;7;5;
79117;PMS7003;68523;51.336;-0.846;2023-07-09T12:45:00;13;9;
79117;PMS7003;68523;51.336;-0.846;2023-07-09T12:48:00;13;9;
79117;PMS7003;68523;51.336;-0.846;2023-07-09T12:51:00;13;9;
79117;PMS7003;68523;51.336;-0.846;2023-07-09T12:54:00;12;11;
79117;PMS7003;68523;51.336;-0.846;2023-07-09T12:57:00;12;11;
79117;PMS7003;68523;51.336;-0.846;2023-07-09T13:00:00;9;8;
79117;PMS7003;68523;51.336;-0.846;2023-07-09T13:03:00;9;2;
79117;PMS7003;68523;51.336;-0.846;2023-07-09T13:06:01;9;2;
79117;PMS7003;68523;51.336;-0.846;2023-07-09T13:09:00;9;3;
79117;PMS7003;68523;51.336;-0.846;2023-07-09T13:12:03;9;3;
79117;PMS7003;68523;51.336;-0.846;2023-07-09T13:15:00;12;3;
79117;PMS7003;68523;51.336;-0.846;2023-07-09T13:18:01;13;6;
79117;PMS7003;68523;51.336;-0.846;2023-07-09T13:21:00;13;6;
79117;PMS7003;68523;51.336;-0.846;2023-07-09T13:24:00;8;3;
79117;PMS7003;68523;51.336;-0.846;2023-07-09T13:27:00;8;3;
79117;PMS7003;68523;51.336;-0.846;2023-07-09T13:30:00;7;1;
79117;PMS7003;68523;51.336;-0.846;2023-07-09T13:33:00;6;1;
79117;PMS7003;68523;51.336;-0.846;2023-07-09T13:36:00;6;1;
79117;PMS7003;68523;51.336;-0.846;2023-07-09T13:39:00;5;3;
79117;PMS7003;68523;51.336;-0.846;2023-07-09T13:42:00;5;3;
79117;PMS7003;68523;51.336;-0.846;2023-07-09T13:45:00;5;5;
79117;PMS7003;68523;51.336;-0.846;2023-07-09T13:48:00;6;3;
79117;PMS7003;68523;51.336;-0.846;2023-07-09T13:51:00;6;3;
79117;PMS7003;68523;51.336;-0.846;2023-07-09T13:54:00;11;8;
79117;PMS7003;68523;51.336;-0.846;2023-07-09T13:57:00;11;8;
79117;PMS7003;68523;51.336;-0.846;2023-07-09T14:00:01;9;1;
79117;PMS7003;68523;51.336;-0.846;2023-07-09T14:03:00;11;2;
79117;PMS7003;68523;51.336;-0.846;2023-07-09T14:06:00;11;2;
79117;PMS7003;68523;51.336;-0.846;2023-07-09T14:09:00;7;1;
79117;PMS7003;68523;51.336;-0.846;2023-07-09T14:12:00;7;1;
79117;PMS7003;68523;51.336;-0.846;2023-07-09T14:15:00;9;3;
79117;PMS7003;68523;51.336;-0.846;2023-07-09T14:18:00;6;0;
79117;PMS7003;68523;51.336;-0.846;2023-07-09T14:21:00;6;0;
79117;PMS7003;68523;51.336;-0.846;2023-07-09T14:24:00;0;0;
79117;PMS7003;68523;51.336;-0.846;2023-07-09T14:27:00;0;0;
79117;PMS7003;68523;51.336;-0.846;2023-07-09T14:30:00;2;2;
79117;PMS7003;68523;51.336;-0.846;2023-07-09T14:33:00;1;1;
79117;PMS7003;68523;51.336;-0.846;2023-07-09T14:36:00;1;1;
79117;PMS7003;68523;51.336;-0.846;2023-07-09T14:39:00;0;0;
79117;PMS7003;68523;51.336;-0.846;2023-07-09T14:42:00;0;0;
79117;PMS7003;68523;51.336;-0.846;2023-07-09T14:45:00;3;2;
79117;PMS7003;68523;51.336;-0.846;2023-07-09T14:48:00;1;1;
79117;PMS7003;68523;51.336;-0.846;2023-07-09T14:51:00;1;1;
79117;PMS7003;68523;51.336;-0.846;2023-07-09T14:54:00;1;0;
79117;PMS7003;68523;51.336;-0.846;2023-07-09T14:57:00;1;0;
79117;PMS7003;68523;51.336;-0.846;2023-07-09T15:00:00;5;4;
79117;PMS7003;68523;51.336;-0.846;2023-07-09T15:03:00;21;21;
79117;PMS7003;68523;51.336;-0.846;2023-07-09T15:06:00;21;21;
79117;PMS7003;68523;51.336;-0.846;2023-07-09T15:09:00;12;8;
79117;PMS7003;68523;51.336;-0.846;2023-07-09T15:12:00;12;8;
79117;PMS7003;68523;51.336;-0.846;2023-07-09T15:15:01;10;9;
79117;PMS7003;68523;51.336;-0.846;2023-07-09T15:18:00;3;3;
79117;PMS7003;68523;51.336;-0.846;2023-07-09T15:21:01;3;3;
79117;PMS7003;68523;51.336;-0.846;2023-07-09T15:24:00;8;2;
79117;PMS7003;68523;51.336;-0.846;2023-07-09T15:27:00;8;2;
79117;PMS7003;68523;51.336;-0.846;2023-07-09T15:30:00;2;2;
79117;PMS7003;68523;51.336;-0.846;2023-07-09T15:33:00;3;2;
79117;PMS7003;68523;51.336;-0.846;2023-07-09T15:36:00;3;2;
79117;PMS7003;68523;51.336;-0.846;2023-07-09T15:39:00;5;4;
79117;PMS7003;68523;51.336;-0.846;2023-07-09T15:42:00;5;4;
79117;PMS7003;68523;51.336;-0.846;2023-07-09T15:45:00;2;2;
79117;PMS7003;68523;51.336;-0.846;2023-07-09T15:48:00;5;4;
79117;PMS7003;68523;51.336;-0.846;2023-07-09T15:51:00;5;4;
79117;PMS7003;68523;51.336;-0.846;2023-07-09T15:54:00;1;1;
79117;PMS7003;68523;51.336;-0.846;2023-07-09T15:57:00;1;1;
79117;PMS7003;68523;51.336;-0.846;2023-07-09T16:00:00;7;2;
79117;PMS7003;68523;51.336;-0.846;2023-07-09T16:03:00;2;2;
79117;PMS7003;68523;51.336;-0.846;2023-07-09T16:06:00;2;2;
79117;PMS7003;68523;51.336;-0.846;2023-07-09T16:09:00;3;2;
79117;PMS7003;68523;51.336;-0.846;2023-07-09T16:12:00;3;2;
79117;PMS7003;68523;51.336;-0.846;2023-07-09T16:15:00;3;2;
79117;PMS7003;68523;51.336;-0.846;2023-07-09T16:18:00;3;2;
79117;PMS7003;68523;51.336;-0.846;2023-07-09T16:21:00;3;2;
79117;PMS7003;68523;51.336;-0.846;2023-07-09T16:24:01;6;6;
79117;PMS7003;68523;51.336;-0.846;2023-07-09T16:27:01;6;6;
79117;PMS7003;68523;51.336;-0.846;2023-07-09T16:30:00;5;4;
79117;PMS7003;68523;51.336;-0.846;2023-07-09T16:33:00;8;6;
79117;PMS7003;68523;51.336;-0.846;2023-07-09T16:36:00;8;6;
79117;PMS7003;68523;51.336;-0.846;2023-07-09T16:39:00;2;2;
79117;PMS7003;68523;51.336;-0.846;2023-07-09T16:42:00;2;2;
79117;PMS7003;68523;51.336;-0.846;2023-07-09T16:45:00;11;10;
79117;PMS7003;68523;51.336;-0.846;2023-07-09T16:48:00;2;2;
79117;PMS7003;68523;51.336;-0.846;2023-07-09T16:51:00;2;2;
79117;PMS7003;68523;51.336;-0.846;2023-07-09T16:54:00;4;1;
79117;PMS7003;68523;51.336;-0.846;2023-07-09T16:57:00;4;1;
79117;PMS7003;68523;51.336;-0.846;2023-07-09T17:00:12;5;2;
79117;PMS7003;68523;51.336;-0.846;2023-07-09T17:03:02;27;21;
79117;PMS7003;68523;51.336;-0.846;2023-07-09T17:06:00;27;21;
79117;PMS7003;68523;51.336;-0.846;2023-07-09T17:09:00;15;15;
79117;PMS7003;68523;51.336;-0.846;2023-07-09T17:12:00;15;15;
79117;PMS7003;68523;51.336;-0.846;2023-07-09T17:15:00;9;8;
79117;PMS7003;68523;51.336;-0.846;2023-07-09T17:18:00;5;5;
79117;PMS7003;68523;51.336;-0.846;2023-07-09T17:21:01;5;5;
79117;PMS7003;68523;51.336;-0.846;2023-07-09T17:24:00;2;2;
79117;PMS7003;68523;51.336;-0.846;2023-07-09T17:27:00;2;2;
79117;PMS7003;68523;51.336;-0.846;2023-07-09T17:30:00;4;3;
79117;PMS7003;68523;51.336;-0.846;2023-07-09T17:33:00;3;2;
79117;PMS7003;68523;51.336;-0.846;2023-07-09T17:36:00;3;2;
79117;PMS7003;68523;51.336;-0.846;2023-07-09T17:39:00;1;1;
79117;PMS7003;68523;51.336;-0.846;2023-07-09T17:42:00;1;1;
79117;PMS7003;68523;51.336;-0.846;2023-07-09T17:45:00;5;5;
79117;PMS7003;68523;51.336;-0.846;2023-07-09T17:48:00;2;2;
79117;PMS7003;68523;51.336;-0.846;2023-07-09T17:51:00;2;2;
79117;PMS7003;68523;51.336;-0.846;2023-07-09T17:54:00;5;2;
79117;PMS7003;68523;51.336;-0.846;2023-07-09T17:57:00;5;2;
79117;PMS7003;68523;51.336;-0.846;2023-07-09T18:00:00;3;0;
79117;PMS7003;68523;51.336;-0.846;2023-07-09T18:03:01;2;2;
79117;PMS7003;68523;51.336;-0.846;2023-07-09T18:06:00;2;2;
79117;PMS7003;68523;51.336;-0.846;2023-07-09T18:09:00;4;2;
79117;PMS7003;68523;51.336;-0.846;2023-07-09T18:12:00;4;2;
79117;PMS7003;68523;51.336;-0.846;2023-07-09T18:15:00;5;4;
79117;PMS7003;68523;51.336;-0.846;2023-07-09T18:18:02;3;3;
79117;PMS7003;68523;51.336;-0.846;2023-07-09T18:21:00;3;3;
79117;PMS7003;68523;51.336;-0.846;2023-07-09T18:24:00;5;2;
79117;PMS7003;68523;51.336;-0.846;2023-07-09T18:27:00;5;2;
79117;PMS7003;68523;51.336;-0.846;2023-07-09T18:30:00;3;2;
79117;PMS7003;68523;51.336;-0.846;2023-07-09T18:33:01;4;3;
79117;PMS7003;68523;51.336;-0.846;2023-07-09T18:36:00;4;3;
79117;PMS7003;68523;51.336;-0.846;2023-07-09T18:39:00;5;3;
79117;PMS7003;68523;51.336;-0.846;2023-07-09T18:42:00;5;3;
79117;PMS7003;68523;51.336;-0.846;2023-07-09T18:45:00;5;5;
79117;PMS7003;68523;51.336;-0.846;2023-07-09T18:48:00;8;6;
79117;PMS7003;68523;51.336;-0.846;2023-07-09T18:51:00;8;6;
79117;PMS7003;68523;51.336;-0.846;2023-07-09T18:54:00;14;14;
79117;PMS7003;68523;51.336;-0.846;2023-07-09T18:57:00;14;14;
79117;PMS7003;68523;51.336;-0.846;2023-07-09T19:00:00;7;6;
79117;PMS7003;68523;51.336;-0.846;2023-07-09T19:03:00;6;6;
79117;PMS7003;68523;51.336;-0.846;2023-07-09T19:06:00;6;6;
79117;PMS7003;68523;51.336;-0.846;2023-07-09T19:09:00;3;3;
79117;PMS7003;68523;51.336;-0.846;2023-07-09T19:12:00;3;3;
79117;PMS7003;68523;51.336;-0.846;2023-07-09T19:15:00;13;13;
79117;PMS7003;68523;51.336;-0.846;2023-07-09T19:18:00;11;11;
79117;PMS7003;68523;51.336;-0.846;2023-07-09T19:21:00;11;11;
79117;PMS7003;68523;51.336;-0.846;2023-07-09T19:24:00;14;12;
79117;PMS7003;68523;51.336;-0.846;2023-07-09T19:27:00;14;12;
79117;PMS7003;68523;51.336;-0.846;2023-07-09T19:30:00;25;24;
79117;PMS7003;68523;51.336;-0.846;2023-07-09T19:33:00;30;29;
79117;PMS7003;68523;51.336;-0.846;2023-07-09T19:36:00;30;29;
79117;PMS7003;68523;51.336;-0.846;2023-07-09T19:39:00;35;31;
79117;PMS7003;68523;51.336;-0.846;2023-07-09T19:42:01;35;31;
79117;PMS7003;68523;51.336;-0.846;2023-07-09T19:45:00;27;23;
79117;PMS7003;68523;51.336;-0.846;2023-07-09T19:48:00;27;23;
79117;PMS7003;68523;51.336;-0.846;2023-07-09T19:51:00;37;33;
79117;PMS7003;68523;51.336;-0.846;2023-07-09T19:54:00;64;53;
79117;PMS7003;68523;51.336;-0.846;2023-07-09T19:57:00;64;53;
79117;PMS7003;68523;51.336;-0.846;2023-07-09T20:00:00;62;52;
79117;PMS7003;68523;51.336;-0.846;2023-07-09T20:03:01;62;52;
79117;PMS7003;68523;51.336;-0.846;2023-07-09T20:06:00;67;55;